Time;durP1;ratioP1;P1;durP2;ratioP2;P2;SDS_P1;SDS_P2;PMS_P1;PMS_P2;Temp;Humidity;BMP_temperature;BMP_pressure;BME280_temperature;BME280_humidity;BME280_pressure;Samples;Min_cycle;Max_cycle;Signal;HPM_P1;HPM_P2
2023/10/29 00:02:16;;;;;;;3.83;1.33;;;;;;;20.51;58.61;98705.44;6215895;23;20149;-89
2023/10/29 00:04:42;;;;;;;7.40;1.30;;;;;;;20.61;59.53;98711.50;6215655;23;20160;-89
2023/10/29 00:07:07;;;;;;;4.50;1.50;;;;;;;20.68;59.74;98721.38;6215896;23;20149;-90
2023/10/29 00:09:33;;;;;;;6.13;1.43;;;;;;;20.79;59.71;98718.47;6215607;23;20181;-90
2023/10/29 00:11:59;;;;;;;4.50;1.57;;;;;;;20.91;59.45;98708.38;6189332;23;20185;-89
2023/10/29 00:14:24;;;;;;;6.23;1.60;;;;;;;21.03;59.04;98716.97;6216283;23;20265;-90
2023/10/29 00:16:50;;;;;;;5.50;1.60;;;;;;;21.05;59.02;98715.81;6215630;23;20208;-90
2023/10/29 00:19:16;;;;;;;5.93;1.40;;;;;;;20.97;58.42;98723.75;6189494;23;20644;-89
2023/10/29 00:21:42;;;;;;;4.57;1.60;;;;;;;20.88;56.50;98727.38;6215728;23;20475;-89
2023/10/29 00:24:08;;;;;;;2.93;1.33;;;;;;;20.79;55.26;98731.78;6215784;23;20569;-89
2023/10/29 00:26:34;;;;;;;5.27;1.30;;;;;;;20.77;54.63;98735.59;6216035;23;20156;-89
2023/10/29 00:29:00;;;;;;;5.20;1.13;;;;;;;20.73;54.32;98731.56;6215481;23;20173;-90
2023/10/29 00:31:26;;;;;;;2.47;1.07;;;;;;;20.64;53.74;98733.34;6216014;23;20578;-89
2023/10/29 00:33:52;;;;;;;4.93;1.10;;;;;;;20.48;53.94;98733.19;6215389;23;20178;-89
2023/10/29 00:36:17;;;;;;;4.27;1.50;;;;;;;20.37;54.36;98729.91;6189466;23;20545;-90
2023/10/29 00:38:43;;;;;;;3.87;1.73;;;;;;;20.33;54.87;98739.19;6189528;23;20169;-90
2023/10/29 00:41:08;;;;;;;5.40;1.40;;;;;;;20.27;55.41;98745.13;6215420;23;20145;-89
2023/10/29 00:43:40;;;;;;;7.63;1.53;;;;;;;20.21;55.95;98742.03;6215467;23;20157;-90
2023/10/29 00:46:06;;;;;;;6.20;1.27;;;;;;;20.19;56.05;98743.19;6215409;23;20193;-90
2023/10/29 00:48:35;;;;;;;6.47;1.53;;;;;;;20.14;56.07;98740.97;6215461;23;20160;-89
2023/10/29 00:51:01;;;;;;;4.70;1.60;;;;;;;20.08;56.39;98740.72;6215360;23;20151;-89
2023/10/29 00:53:28;;;;;;;4.53;1.50;;;;;;;20.04;56.55;98745.53;6215345;23;20177;-89
2023/10/29 00:55:54;;;;;;;7.77;1.50;;;;;;;20.01;56.57;98751.16;6215418;23;20567;-89
2023/10/29 00:58:20;;;;;;;11.07;2.00;;;;;;;19.98;56.57;98745.28;6215322;23;20573;-89
2023/10/29 01:00:46;;;;;;;4.97;2.13;;;;;;;19.91;57.14;98749.53;6189007;23;20153;-89
2023/10/29 01:03:11;;;;;;;7.47;1.83;;;;;;;19.93;57.36;98747.53;6189131;23;20156;-89
2023/10/29 01:05:38;;;;;;;4.07;1.83;;;;;;;20.00;57.85;98754.78;6215081;23;20596;-89
2023/10/29 01:08:05;;;;;;;6.70;1.83;;;;;;;20.03;58.28;98759.81;6215854;23;20146;-90
2023/10/29 01:10:31;;;;;;;6.33;1.53;;;;;;;20.11;58.77;98748.41;6215218;23;20166;-90
2023/10/29 01:12:57;;;;;;;5.10;1.73;;;;;;;20.16;59.05;98762.94;6215369;23;20192;-90
2023/10/29 01:15:22;;;;;;;4.93;1.73;;;;;;;20.22;59.03;98758.84;6215567;23;20553;-90
2023/10/29 01:17:48;;;;;;;7.67;2.17;;;;;;;20.18;59.23;98758.31;6215702;23;20146;-89
2023/10/29 01:20:13;;;;;;;6.03;1.90;;;;;;;20.17;58.42;98756.66;6189235;23;20228;-90
2023/10/29 01:22:39;;;;;;;3.23;1.33;;;;;;;20.09;58.53;98753.91;6215766;23;20157;-89
2023/10/29 01:25:09;;;;;;;3.83;1.73;;;;;;;20.10;58.59;98768.03;6191313;23;20157;-90
2023/10/29 01:27:35;;;;;;;3.67;2.00;;;;;;;20.07;59.00;98763.03;6191687;23;20200;-90
2023/10/29 01:30:00;;;;;;;7.97;1.50;;;;;;;20.05;59.35;98767.63;6217436;23;20569;-90
2023/10/29 01:32:25;;;;;;;6.10;2.33;;;;;;;20.04;59.42;98772.13;6217668;23;20150;-90
2023/10/29 01:34:51;;;;;;;6.23;1.87;;;;;;;20.01;59.08;98769.78;6190962;23;20493;-89
2023/10/29 01:37:16;;;;;;;5.43;2.00;;;;;;;20.01;58.89;98777.75;6217682;23;20535;-90
2023/10/29 01:39:42;;;;;;;5.80;1.70;;;;;;;19.94;58.96;98776.66;6217174;23;20149;-89
2023/10/29 01:42:08;;;;;;;5.63;1.80;;;;;;;19.92;59.04;98777.78;6217980;23;20149;-89
2023/10/29 01:44:33;;;;;;;4.37;1.33;;;;;;;19.90;59.20;98782.41;6217372;23;20174;-90
2023/10/29 01:46:58;;;;;;;7.07;2.07;;;;;;;19.93;59.16;98784.78;6190763;23;20150;-89
2023/10/29 01:49:24;;;;;;;6.80;2.17;;;;;;;19.96;59.05;98784.50;6190877;23;20641;-89
2023/10/29 01:51:49;;;;;;;5.13;1.90;;;;;;;19.97;59.46;98784.34;6190991;23;20236;-89
2023/10/29 01:54:15;;;;;;;5.07;1.70;;;;;;;20.03;60.38;98783.75;6217281;23;20633;-90
2023/10/29 01:56:41;;;;;;;8.90;2.47;;;;;;;20.13;61.67;98775.72;6190869;23;20476;-90
2023/10/29 01:59:07;;;;;;;6.90;2.07;;;;;;;20.21;62.28;98783.78;6216953;23;20168;-89
2023/10/29 02:01:33;;;;;;;5.70;1.73;;;;;;;20.29;63.39;98775.06;6217148;23;20157;-90
2023/10/29 02:03:58;;;;;;;3.93;1.60;;;;;;;20.36;63.85;98781.50;6217090;23;20249;-90
2023/10/29 02:06:24;;;;;;;4.27;1.73;;;;;;;20.50;63.38;98788.94;6216857;23;20169;-90
2023/10/29 02:08:49;;;;;;;12.30;2.77;;;;;;;20.54;63.05;98791.19;6190669;23;20248;-90
2023/10/29 02:11:15;;;;;;;9.33;1.90;;;;;;;20.62;62.63;98799.22;6190833;23;20145;-90
2023/10/29 02:13:40;;;;;;;6.50;2.20;;;;;;;20.68;62.15;98795.09;6190792;23;20185;-90
2023/10/29 02:16:06;;;;;;;4.93;1.90;;;;;;;20.72;61.80;98804.50;6217323;23;20146;-90
2023/10/29 02:18:31;;;;;;;4.90;1.70;;;;;;;20.82;60.95;98799.91;6217076;23;20146;-90
2023/10/29 02:20:57;;;;;;;6.87;2.13;;;;;;;20.84;60.30;98795.25;6217352;23;20318;-90
2023/10/29 02:23:22;;;;;;;8.40;1.83;;;;;;;20.88;59.84;98798.47;6216885;23;20228;-91
2023/10/29 02:25:48;;;;;;;4.77;1.33;;;;;;;20.81;59.31;98798.22;6190784;23;20149;-90
2023/10/29 02:28:13;;;;;;;14.57;1.50;;;;;;;20.81;59.21;98803.56;6190485;23;20150;-90
2023/10/29 02:30:39;;;;;;;5.57;1.93;;;;;;;20.82;59.06;98797.25;6216868;23;20565;-90
2023/10/29 02:33:04;;;;;;;2.07;1.03;;;;;;;20.88;58.96;98803.78;6190633;23;20188;-90
2023/10/29 02:35:30;;;;;;;3.63;1.23;;;;;;;20.89;59.00;98803.63;6216984;23;20157;-89
2023/10/29 02:37:55;;;;;;;7.93;2.03;;;;;;;20.92;59.21;98808.66;6216778;23;20207;-90
2023/10/29 02:40:21;;;;;;;6.63;1.70;;;;;;;20.87;59.71;98810.94;6190410;23;20158;-90
2023/10/29 02:42:46;;;;;;;6.33;1.53;;;;;;;20.96;59.78;98812.69;6216826;23;20146;-90
2023/10/29 02:45:12;;;;;;;4.60;1.63;;;;;;;20.99;59.63;98812.38;6190442;23;20453;-90
2023/10/29 02:47:37;;;;;;;6.77;1.33;;;;;;;21.00;59.66;98813.22;6190575;23;20600;-90
2023/10/29 02:50:03;;;;;;;8.67;1.90;;;;;;;21.05;59.73;98821.56;6216587;23;20597;-90
2023/10/29 02:52:29;;;;;;;5.60;1.33;;;;;;;21.09;59.40;98823.00;6190158;23;20529;-89
2023/10/29 02:54:56;;;;;;;5.70;1.73;;;;;;;21.10;59.49;98827.31;6216943;23;20177;-89
2023/10/29 02:57:23;;;;;;;5.43;1.80;;;;;;;21.13;59.55;98835.84;6190332;23;20154;-90
2023/10/29 02:59:49;;;;;;;8.00;2.40;;;;;;;21.12;59.50;98828.84;6216545;23;20146;-90
2023/10/29 03:02:14;;;;;;;7.13;1.57;;;;;;;21.16;59.78;98824.88;6216957;23;20156;-90
2023/10/29 03:04:40;;;;;;;5.93;2.07;;;;;;;21.18;59.96;98828.22;6216455;23;20224;-90
2023/10/29 03:07:05;;;;;;;8.50;2.37;;;;;;;21.20;59.78;98831.56;6190167;23;20157;-90
2023/10/29 03:09:31;;;;;;;8.90;2.83;;;;;;;21.20;60.00;98842.22;6216559;23;20471;-90
2023/10/29 03:11:56;;;;;;;12.70;2.30;;;;;;;21.24;59.79;98837.44;6190477;23;20576;-90
2023/10/29 03:14:22;;;;;;;9.57;2.20;;;;;;;21.22;59.71;98837.59;6216463;23;20501;-89
2023/10/29 03:16:47;;;;;;;9.67;2.00;;;;;;;21.23;59.69;98833.94;6216535;23;20484;-89
2023/10/29 03:19:12;;;;;;;5.83;2.13;;;;;;;21.21;59.54;98835.91;6216463;23;20572;-89
2023/10/29 03:21:38;;;;;;;5.80;1.83;;;;;;;21.21;59.28;98838.59;6217001;23;20279;-89
2023/10/29 03:24:04;;;;;;;7.60;1.90;;;;;;;21.24;59.05;98843.59;6190021;23;20586;-89
2023/10/29 03:26:29;;;;;;;4.90;1.77;;;;;;;21.22;58.75;98844.75;6216315;23;20568;-89
2023/10/29 03:28:55;;;;;;;4.27;1.67;;;;;;;21.30;57.67;98842.97;6216160;23;20149;-90
2023/10/29 03:31:20;;;;;;;7.73;1.83;;;;;;;21.31;57.85;98851.81;6189991;23;20240;-89
2023/10/29 03:33:47;;;;;;;5.30;1.30;;;;;;;21.33;57.51;98852.50;6189839;23;20272;-89
2023/10/29 03:36:13;;;;;;;5.13;1.40;;;;;;;21.24;57.09;98853.44;6216823;23;20145;-89
2023/10/29 03:38:38;;;;;;;4.77;1.27;;;;;;;21.25;56.35;98853.25;6216249;23;20150;-89
2023/10/29 03:41:04;;;;;;;5.33;1.60;;;;;;;21.23;56.25;98857.91;6216282;23;20180;-90
2023/10/29 03:43:29;;;;;;;5.17;1.30;;;;;;;21.22;56.07;98864.25;6216340;23;20184;-89
2023/10/29 03:45:55;;;;;;;6.37;1.37;;;;;;;21.24;55.37;98867.59;6216302;23;20146;-90
2023/10/29 03:48:20;;;;;;;7.20;1.57;;;;;;;21.20;55.37;98868.88;6190343;23;20150;-89
2023/10/29 03:50:46;;;;;;;5.20;1.47;;;;;;;21.21;55.22;98867.06;6215933;23;20192;-89
2023/10/29 03:53:11;;;;;;;6.07;1.47;;;;;;;21.25;54.75;98871.91;6189799;23;20206;-90
2023/10/29 03:55:37;;;;;;;4.50;1.53;;;;;;;21.26;54.85;98867.44;6216028;23;20160;-90
2023/10/29 03:58:04;;;;;;;2.87;1.23;;;;;;;21.29;54.75;98857.31;6215792;23;20161;-89
2023/10/29 04:00:29;;;;;;;7.10;1.53;;;;;;;21.28;54.80;98871.63;6189860;23;20244;-89
2023/10/29 04:02:56;;;;;;;3.80;1.17;;;;;;;21.25;54.47;98876.44;6215770;23;20176;-89
2023/10/29 04:05:22;;;;;;;5.00;0.90;;;;;;;21.21;54.25;98875.91;6189711;23;20169;-89
2023/10/29 04:07:48;;;;;;;7.53;1.50;;;;;;;21.20;54.18;98879.53;6216210;23;20154;-89
2023/10/29 04:10:14;;;;;;;4.73;1.50;;;;;;;21.20;54.12;98878.72;6215581;23;20165;-89
2023/10/29 04:12:39;;;;;;;7.53;2.13;;;;;;;21.17;54.07;98879.84;6216052;23;20150;-89
2023/10/29 04:15:05;;;;;;;8.77;1.70;;;;;;;21.18;53.96;98886.03;6215615;23;20150;-89
2023/10/29 04:17:31;;;;;;;5.83;1.70;;;;;;;21.13;53.69;98889.16;6215829;23;20526;-89
2023/10/29 04:19:58;;;;;;;7.37;1.80;;;;;;;21.08;53.69;98894.13;6215769;23;20177;-89
2023/10/29 04:22:23;;;;;;;5.10;1.70;;;;;;;21.05;53.92;98896.19;6215595;23;20240;-89
2023/10/29 04:24:49;;;;;;;10.97;1.50;;;;;;;21.08;53.67;98896.78;6215673;23;20154;-89
2023/10/29 04:27:14;;;;;;;4.10;1.23;;;;;;;21.07;53.45;98895.09;6189451;23;20157;-90
2023/10/29 04:29:40;;;;;;;6.40;1.87;;;;;;;21.04;53.45;98898.03;6189554;23;20158;-90
2023/10/29 04:32:05;;;;;;;6.70;1.37;;;;;;;21.04;53.08;98902.53;6215676;23;20172;-90
2023/10/29 04:34:31;;;;;;;4.93;1.33;;;;;;;21.03;53.11;98904.34;6215642;23;20650;-90
2023/10/29 04:36:57;;;;;;;6.43;1.87;;;;;;;20.97;53.34;98904.97;6215767;23;20164;-90
2023/10/29 04:39:22;;;;;;;5.57;1.30;;;;;;;20.97;53.69;98912.94;6215609;23;20208;-89
2023/10/29 04:41:48;;;;;;;8.13;1.33;;;;;;;20.96;53.32;98913.97;6215645;23;20611;-90
2023/10/29 04:44:14;;;;;;;6.47;1.53;;;;;;;20.93;53.17;98919.59;6189084;23;20168;-90
2023/10/29 04:46:39;;;;;;;5.83;1.33;;;;;;;20.92;52.83;98923.22;6189313;23;20154;-89
2023/10/29 04:49:04;;;;;;;4.30;1.70;;;;;;;20.91;52.59;98931.38;6215568;23;20609;-90
2023/10/29 04:51:30;;;;;;;6.10;1.87;;;;;;;20.91;52.60;98936.72;6215293;23;20574;-90
2023/10/29 04:53:56;;;;;;;4.47;1.70;;;;;;;20.92;52.18;98938.38;6215544;23;20178;-90
2023/10/29 04:56:21;;;;;;;5.37;1.60;;;;;;;20.88;52.21;98940.53;6215389;23;20145;-89
2023/10/29 04:58:47;;;;;;;3.40;1.17;;;;;;;20.78;52.54;98945.03;6188905;23;20172;-90
2023/10/29 05:01:13;;;;;;;6.63;1.87;;;;;;;20.67;52.71;98939.94;6215272;23;20160;-89
2023/10/29 05:03:39;;;;;;;10.47;3.27;;;;;;;20.57;52.39;98955.13;6215402;23;20474;-89
2023/10/29 05:06:05;;;;;;;6.83;1.60;;;;;;;20.47;52.84;98949.00;6215529;23;20177;-89
2023/10/29 05:08:31;;;;;;;6.60;2.17;;;;;;;20.33;52.98;98952.16;6215134;23;20207;-89
2023/10/29 05:10:56;;;;;;;6.20;1.73;;;;;;;20.32;52.77;98958.44;6215370;23;20149;-89
2023/10/29 05:13:22;;;;;;;6.70;2.17;;;;;;;20.21;53.30;98968.28;6215306;23;20540;-89
2023/10/29 05:15:47;;;;;;;4.60;1.57;;;;;;;20.16;53.68;98972.34;6215355;23;20224;-89
2023/10/29 05:18:13;;;;;;;4.17;1.67;;;;;;;20.10;54.19;98972.91;6215184;23;20566;-89
2023/10/29 05:20:38;;;;;;;4.23;1.80;;;;;;;20.04;54.33;98971.69;6215282;23;20145;-89
2023/10/29 05:23:05;;;;;;;7.63;2.37;;;;;;;19.97;54.69;98973.22;6189160;23;20180;-89
2023/10/29 05:25:30;;;;;;;4.87;1.37;;;;;;;19.93;55.00;98974.53;6215275;23;20149;-89
2023/10/29 05:27:56;;;;;;;5.87;2.03;;;;;;;19.89;55.20;98983.75;6214929;23;20160;-89
2023/10/29 05:30:22;;;;;;;6.47;1.83;;;;;;;19.87;55.07;98990.19;6215918;23;20145;-89
2023/10/29 05:32:48;;;;;;;8.67;2.23;;;;;;;19.83;54.99;98992.31;6215469;23;20320;-89
2023/10/29 05:35:13;;;;;;;11.87;3.20;;;;;;;19.84;55.01;98991.31;6215089;23;20221;-89
2023/10/29 05:37:39;;;;;;;4.47;2.20;;;;;;;19.85;55.09;99000.16;6215533;23;20156;-89
2023/10/29 05:40:07;;;;;;;4.47;1.63;;;;;;;19.86;54.98;99004.50;6214918;23;20580;-89
2023/10/29 05:42:33;;;;;;;3.77;2.03;;;;;;;19.81;55.11;99004.91;6215500;23;20150;-88
2023/10/29 05:44:59;;;;;;;6.43;2.00;;;;;;;19.83;55.14;99010.09;6215160;23;20150;-88
2023/10/29 05:47:24;;;;;;;3.53;1.70;;;;;;;19.86;55.30;99008.00;6215033;23;20616;-88
2023/10/29 05:49:50;;;;;;;5.77;2.03;;;;;;;19.95;55.07;99015.13;6215119;23;20150;-88
2023/10/29 05:52:15;;;;;;;9.47;2.27;;;;;;;20.05;54.88;99015.94;6215510;23;20157;-88
2023/10/29 05:54:41;;;;;;;6.00;2.43;;;;;;;20.17;54.29;99019.28;6214965;23;20174;-89
2023/10/29 05:57:06;;;;;;;5.57;2.60;;;;;;;20.21;53.63;99025.97;6188888;23;20154;-89
2023/10/29 05:59:32;;;;;;;5.20;2.07;;;;;;;20.27;53.36;99024.59;6188842;23;20553;-89
2023/10/29 06:01:58;;;;;;;6.77;2.50;;;;;;;20.33;53.21;99024.88;6188832;23;20154;-89
2023/10/29 06:04:24;;;;;;;9.13;2.67;;;;;;;21.17;51.87;99029.13;6215104;23;20260;-89
2023/10/29 06:06:49;;;;;;;4.43;1.93;;;;;;;22.08;48.83;99025.34;6188859;23;20164;-88
2023/10/29 06:09:15;;;;;;;5.73;2.37;;;;;;;22.43;47.70;99027.09;6215796;23;20165;-89
2023/10/29 06:11:41;;;;;;;9.57;1.87;;;;;;;22.42;47.39;99039.59;6190451;23;20484;-90
2023/10/29 06:14:07;;;;;;;8.83;2.20;;;;;;;22.42;47.33;99034.25;6216884;23;20300;-89
2023/10/29 06:16:33;;;;;;;6.60;2.27;;;;;;;22.58;47.47;99045.03;6217375;23;20157;-89
2023/10/29 06:18:58;;;;;;;3.23;1.87;;;;;;;22.73;47.64;99039.13;6216699;23;20582;-89
2023/10/29 06:21:23;;;;;;;6.27;2.53;;;;;;;23.26;46.17;99039.66;6216910;23;20145;-88
2023/10/29 06:23:49;;;;;;;10.37;2.30;;;;;;;23.62;45.22;99040.28;6190850;23;20556;-89
2023/10/29 06:26:15;;;;;;;5.80;1.90;;;;;;;24.25;44.73;99033.28;6215560;23;20149;-90
2023/10/29 06:28:41;;;;;;;9.13;2.50;;;;;;;25.38;42.20;99029.38;6216812;23;20156;-89
2023/10/29 06:31:07;;;;;;;7.07;2.13;;;;;;;26.34;39.78;99037.72;6216516;23;20154;-89
2023/10/29 06:33:32;;;;;;;4.33;1.90;;;;;;;27.16;38.86;99042.88;6217398;23;20178;-89
2023/10/29 06:35:58;;;;;;;5.90;2.20;;;;;;;28.00;38.19;99042.16;6216589;23;20534;-89
2023/10/29 06:38:24;;;;;;;9.10;1.67;;;;;;;28.60;36.52;99049.69;6216872;23;20146;-89
2023/10/29 06:40:50;;;;;;;6.40;1.63;;;;;;;28.96;35.72;99038.72;6216721;23;20157;-88
2023/10/29 06:43:15;;;;;;;5.93;1.90;;;;;;;29.05;35.04;99053.72;6216612;23;20146;-89
2023/10/29 06:45:41;;;;;;;4.83;1.97;;;;;;;28.97;35.95;99056.59;6190472;23;20619;-89
2023/10/29 06:48:06;;;;;;;8.97;1.80;;;;;;;29.02;35.38;99053.28;6216768;23;20233;-90
2023/10/29 06:50:32;;;;;;;9.43;1.70;;;;;;;28.94;35.23;99062.38;6190306;23;20219;-89
2023/10/29 06:52:57;;;;;;;4.37;1.50;;;;;;;28.81;35.63;99064.16;6190373;23;20643;-89
2023/10/29 06:55:23;;;;;;;4.63;1.30;;;;;;;28.53;34.95;99059.63;6216675;23;20157;-89
2023/10/29 06:57:49;;;;;;;5.73;1.73;;;;;;;28.26;36.06;99067.69;6191152;23;20150;-90
2023/10/29 07:00:15;;;;;;;6.67;1.90;;;;;;;28.03;36.54;99076.00;6216855;23;20150;-88
2023/10/29 07:02:41;;;;;;;5.47;1.37;;;;;;;27.85;36.66;99076.44;6216546;23;20157;-90
2023/10/29 07:05:07;;;;;;;5.37;1.77;;;;;;;27.69;37.34;99070.44;6216649;23;20498;-90
2023/10/29 07:07:34;;;;;;;4.83;1.37;;;;;;;27.38;38.08;99079.56;6190664;23;20149;-89
2023/10/29 07:10:01;;;;;;;4.27;1.83;;;;;;;27.37;37.86;99077.91;6189887;23;20169;-91
2023/10/29 07:12:26;;;;;;;6.40;1.90;;;;;;;27.35;37.73;99068.38;6190198;23;20532;-90
2023/10/29 07:14:52;;;;;;;6.70;1.77;;;;;;;27.25;38.23;99065.13;6216402;23;20189;-90
2023/10/29 07:17:17;;;;;;;8.60;1.50;;;;;;;27.20;38.86;99063.00;6190002;23;20161;-90
2023/10/29 07:19:43;;;;;;;10.30;1.47;;;;;;;27.26;38.11;99067.63;6190160;23;20164;-90
2023/10/29 07:22:08;;;;;;;5.03;2.20;;;;;;;27.23;38.42;99073.38;6190148;23;20175;-90
2023/10/29 07:24:35;;;;;;;4.30;1.33;;;;;;;27.23;37.87;99076.06;6216314;23;20156;-90
2023/10/29 07:27:01;;;;;;;6.63;1.93;;;;;;;27.13;37.99;99070.16;6216701;23;20532;-89
2023/10/29 07:29:27;;;;;;;6.13;1.20;;;;;;;27.14;38.29;99076.38;6216384;23;20213;-90
2023/10/29 07:31:52;;;;;;;3.97;1.23;;;;;;;27.05;38.43;99078.31;6216495;23;20164;-90
2023/10/29 07:34:18;;;;;;;3.50;1.43;;;;;;;27.02;38.32;99077.88;6215967;23;20248;-90
2023/10/29 07:36:46;;;;;;;5.27;1.30;;;;;;;26.87;38.56;99080.56;6190317;23;20161;-90
2023/10/29 07:39:11;;;;;;;3.50;1.10;;;;;;;26.77;38.53;99080.84;6215992;23;20169;-90
2023/10/29 07:41:37;;;;;;;7.13;1.47;;;;;;;26.44;39.19;99081.34;6190099;23;20581;-90
2023/10/29 07:44:03;;;;;;;2.63;1.03;;;;;;;26.30;39.90;99084.81;6190094;23;20155;-89
2023/10/29 07:46:28;;;;;;;8.93;1.80;;;;;;;26.10;40.42;99082.59;6190458;23;20168;-90
2023/10/29 07:48:55;;;;;;;3.77;1.43;;;;;;;25.86;40.18;99084.63;6216112;23;20535;-90
2023/10/29 07:51:21;;;;;;;5.60;1.30;;;;;;;25.84;41.12;99087.47;6190002;23;20149;-89
2023/10/29 07:53:47;;;;;;;6.57;1.40;;;;;;;25.96;40.85;99090.59;6215923;23;20245;-89
2023/10/29 07:56:16;;;;;;;3.80;1.20;;;;;;;26.05;41.14;99090.34;6216186;23;20146;-89
2023/10/29 07:58:42;;;;;;;7.60;1.33;;;;;;;26.06;41.46;99083.97;6216295;23;20173;-89
2023/10/29 08:01:11;;;;;;;6.27;1.60;;;;;;;26.16;41.49;99091.81;6190229;23;20165;-89
2023/10/29 08:03:38;;;;;;;5.83;1.30;;;;;;;26.24;41.33;99089.91;6215933;23;20617;-88
2023/10/29 08:06:04;;;;;;;10.10;1.55;;;;;;;26.37;40.55;99091.97;6216020;23;20150;-90
2023/10/29 08:08:29;;;;;;;8.13;1.27;;;;;;;26.48;40.51;99090.69;6215736;23;20486;-89
2023/10/29 08:10:55;;;;;;;3.05;0.98;;;;;;;26.66;40.20;99088.50;6215884;23;20154;-89
2023/10/29 08:13:20;;;;;;;5.32;1.25;;;;;;;26.62;41.18;99095.25;6189735;23;20197;-89
2023/10/29 08:15:46;;;;;;;3.10;0.80;;;;;;;26.64;39.98;99090.53;6215837;23;20173;-89
2023/10/29 08:18:11;;;;;;;5.80;0.90;;;;;;;26.89;39.78;99088.47;6215849;23;20165;-90
2023/10/29 08:20:37;;;;;;;5.65;0.98;;;;;;;27.08;38.53;99087.88;6215985;23;20154;-89
2023/10/29 08:23:02;;;;;;;4.90;1.42;;;;;;;27.34;38.23;99083.69;6216121;23;20220;-90
2023/10/29 08:25:28;;;;;;;3.25;0.50;;;;;;;27.40;37.56;99082.97;6215622;23;20472;-89
2023/10/29 08:27:54;;;;;;;5.00;0.80;;;;;;;27.35;37.43;99090.75;6216310;23;20146;-88
2023/10/29 08:30:19;;;;;;;3.55;0.95;;;;;;;27.39;38.08;99091.19;6215771;23;20146;-90
2023/10/29 08:32:45;;;;;;;3.25;0.82;;;;;;;27.50;37.70;99089.88;6189704;23;20164;-90
2023/10/29 08:35:13;;;;;;;2.65;1.17;;;;;;;27.67;37.62;99097.56;6189685;23;20212;-90
2023/10/29 08:37:41;;;;;;;4.32;1.15;;;;;;;27.77;37.35;99086.47;6189737;23;20158;-90
2023/10/29 08:40:08;;;;;;;4.18;1.38;;;;;;;27.83;37.37;99093.81;6215888;23;20153;-90
2023/10/29 08:42:33;;;;;;;5.03;0.90;;;;;;;27.96;37.36;99091.25;6189626;23;20566;-90
2023/10/29 08:44:59;;;;;;;3.65;1.05;;;;;;;27.94;37.60;99090.56;6189596;23;20149;-90
2023/10/29 08:47:25;;;;;;;4.88;0.88;;;;;;;27.97;37.19;99095.59;6189457;23;20157;-90
2023/10/29 08:49:53;;;;;;;4.97;1.27;;;;;;;27.87;37.34;99095.91;6215471;23;20146;-91
2023/10/29 08:52:34;;;;;;;2.17;0.90;;;;;;;28.07;37.48;99095.31;6215802;23;20180;-90
2023/10/29 08:54:59;;;;;;;3.80;1.10;;;;;;;28.14;37.45;99096.22;6189505;23;20185;-89
2023/10/29 08:57:25;;;;;;;6.25;1.20;;;;;;;28.29;37.44;99105.03;6189932;23;20481;-91
2023/10/29 08:59:50;;;;;;;9.43;1.63;;;;;;;28.32;36.90;99102.81;6189423;23;20229;-89
2023/10/29 09:02:16;;;;;;;4.18;0.98;;;;;;;28.30;37.26;99107.53;6189442;23;20192;-91
2023/10/29 09:04:41;;;;;;;8.55;1.70;;;;;;;28.36;36.94;99100.53;6215566;23;20192;-90
2023/10/29 09:07:07;;;;;;;4.82;1.25;;;;;;;28.35;36.63;99107.81;6216071;23;20149;-89
2023/10/29 09:09:32;;;;;;;6.20;1.40;;;;;;;28.44;36.52;99106.63;6215473;23;20557;-90
2023/10/29 09:11:58;;;;;;;4.72;1.40;;;;;;;28.31;37.27;99105.69;6215495;23;20149;-90
2023/10/29 09:14:23;;;;;;;3.30;1.23;;;;;;;28.48;37.22;99102.53;6189233;23;20251;-89
2023/10/29 09:16:49;;;;;;;6.40;1.20;;;;;;;28.81;36.29;99096.56;6189314;23;20168;-90
2023/10/29 09:19:15;;;;;;;5.85;1.80;;;;;;;29.01;36.17;99098.34;6215670;23;20184;-90
2023/10/29 09:21:41;;;;;;;10.57;1.45;;;;;;;28.90;37.67;99103.47;6215940;23;20150;-90
2023/10/29 09:24:07;;;;;;;7.00;1.50;;;;;;;29.10;36.70;99093.63;6215586;23;20142;-91
2023/10/29 09:26:33;;;;;;;7.07;1.65;;;;;;;29.28;36.89;99096.66;6215799;23;20146;-90
2023/10/29 09:29:00;;;;;;;2.72;1.00;;;;;;;29.44;36.49;99096.31;6189440;23;20153;-91
2023/10/29 09:31:28;;;;;;;4.63;1.30;;;;;;;29.67;35.91;99091.38;6216236;23;20496;-92
2023/10/29 09:33:55;;;;;;;4.10;1.45;;;;;;;29.63;35.40;99086.59;6215267;23;20597;-91
2023/10/29 09:36:21;;;;;;;4.68;1.20;;;;;;;29.67;35.14;99088.69;6215181;23;20150;-90
2023/10/29 09:38:49;;;;;;;3.85;1.60;;;;;;;29.85;35.30;99092.72;6189481;23;20157;-91
2023/10/29 09:41:16;;;;;;;4.40;1.13;;;;;;;29.97;35.25;99093.78;6189544;23;20219;-91
2023/10/29 09:43:42;;;;;;;3.42;0.93;;;;;;;30.05;34.98;99085.47;6189894;23;20172;-91
2023/10/29 09:46:10;;;;;;;3.58;1.38;;;;;;;29.98;34.43;99081.94;6217401;23;20225;-91
2023/10/29 09:48:42;;;;;;;3.63;0.90;;;;;;;30.11;34.86;99084.66;6192054;23;20643;-91
2023/10/29 09:51:08;;;;;;;2.67;0.90;;;;;;;30.48;33.74;99078.66;6191867;23;20580;-91
2023/10/29 09:53:38;;;;;;;5.03;1.13;;;;;;;30.53;32.56;99086.97;6191173;23;20185;-90
2023/10/29 09:56:10;;;;;;;4.70;1.40;;;;;;;30.37;32.86;99087.41;6191047;23;20161;-90
2023/10/29 09:58:48;;;;;;;3.28;1.13;;;;;;;30.51;33.52;99078.22;6217253;23;20150;-91
2023/10/29 10:01:15;;;;;;;3.60;1.33;;;;;;;30.42;33.25;99088.44;6190918;23;20161;-91
2023/10/29 10:03:44;;;;;;;7.75;1.52;;;;;;;30.34;34.21;99082.38;6216742;23;20142;-90
2023/10/29 10:06:13;;;;;;;4.80;1.40;;;;;;;30.40;33.57;99082.41;6191472;23;20528;-92
2023/10/29 10:08:39;;;;;;;4.28;1.10;;;;;;;30.58;32.93;99079.09;6217135;23;20154;-90
2023/10/29 10:11:19;;;;;;;8.60;1.17;;;;;;;30.46;33.10;99080.72;6217956;23;20138;-92
2023/10/29 10:13:45;;;;;;;11.77;1.10;;;;;;;30.67;32.56;99077.81;6191594;23;20260;-91
2023/10/29 10:16:20;;;;;;;3.30;1.08;;;;;;;30.82;32.71;99074.84;6217136;23;20181;-92
2023/10/29 10:18:50;;;;;;;5.15;1.40;;;;;;;31.08;31.86;99074.00;6191077;23;20572;-92
2023/10/29 10:21:23;;;;;;;3.83;0.88;;;;;;;31.18;30.52;99071.69;6191006;23;20162;-92
2023/10/29 10:23:52;;;;;;;3.83;0.70;;;;;;;31.14;30.52;99065.84;6191827;23;20138;-91
2023/10/29 10:26:34;;;;;;;8.38;0.93;;;;;;;31.41;30.19;99069.28;6191063;23;20162;-91
2023/10/29 10:30:00;;;;;;;7.68;1.02;;;;;;;31.52;29.94;99065.94;6217629;23;20150;-93
2023/10/29 10:32:26;;;;;;;2.65;0.93;;;;;;;31.59;29.45;99061.31;6187147;23;20232;-92
2023/10/29 10:35:12;;;;;;;;;;;;;;;;;;;;;
2023/10/29 10:38:31;;;;;;;4.70;1.17;;;;;;;31.85;28.81;99058.44;6217673;23;20553;-92
2023/10/29 10:44:10;;;;;;;5.13;0.73;;;;;;;31.62;29.15;99044.63;6095641;23;20160;-92
2023/10/29 10:46:44;;;;;;;3.20;0.90;;;;;;;31.60;29.41;99042.09;6187497;23;20165;-91
2023/10/29 10:53:10;;;;;;;4.78;0.77;;;;;;;31.66;28.57;99026.84;6154545;23;20160;-91
2023/10/29 10:56:05;;;;;;;;;;;;;;;;;;;;;
2023/10/29 10:58:34;;;;;;;2.35;0.85;;;;;;;31.77;27.74;99023.44;6201207;23;20228;-90
2023/10/29 11:04:26;;;;;;;;;;;;;;;;;;;;;
2023/10/29 11:06:49;;;;;;;4.95;0.93;;;;;;;31.86;28.47;99016.72;6213429;23;20533;-92
2023/10/29 11:09:24;;;;;;;3.47;1.20;;;;;;;31.65;28.43;99017.06;6190439;23;20178;-92
2023/10/29 11:11:56;;;;;;;4.65;1.00;;;;;;;31.96;28.15;99025.19;6190762;23;20145;-92
2023/10/29 11:15:23;;;;;;;;;;;;;;;;;;;;;
2023/10/29 11:17:55;;;;;;;3.13;0.80;;;;;;;32.23;28.57;99023.13;6144092;23;20565;-92
2023/10/29 11:20:36;;;;;;;4.70;0.85;;;;;;;32.44;28.25;99021.91;6191130;23;20154;-92
2023/10/29 11:23:15;;;;;;;2.22;0.50;;;;;;;32.16;28.98;99025.88;6217379;23;20142;-90
2023/10/29 11:25:42;;;;;;;5.15;1.40;;;;;;;32.14;28.91;99025.28;6191123;23;20241;-89
2023/10/29 11:28:28;;;;;;;6.60;1.45;;;;;;;32.02;29.59;99031.66;6216488;23;20215;-92
2023/10/29 11:31:25;;;;;;;5.53;1.45;;;;;;;32.03;29.35;99022.44;6190802;23;20154;-92
2023/10/29 11:34:06;;;;;;;3.75;1.20;;;;;;;31.91;29.56;99022.31;6142333;23;20212;-91
2023/10/29 11:36:53;;;;;;;;;;;;;;;;;;;;;
2023/10/29 11:39:31;;;;;;;3.40;0.90;;;;;;;32.28;29.13;99025.19;6215956;23;20320;-90
2023/10/29 11:49:10;;;;;;;2.22;0.80;;;;;;;32.31;29.10;99022.03;6076007;23;20487;-92
2023/10/29 11:51:36;;;;;;;5.82;1.25;;;;;;;32.19;29.05;99014.59;6190377;23;20142;-90
2023/10/29 11:54:09;;;;;;;1.80;0.77;;;;;;;32.20;29.28;99005.44;6190303;23;20668;-92
2023/10/29 11:56:39;;;;;;;4.78;1.00;;;;;;;32.23;29.09;99004.94;6190279;23;20142;-91
2023/10/29 11:59:05;;;;;;;3.63;0.82;;;;;;;32.48;29.24;99001.38;6216656;23;20542;-92